sensor_id;sensor_type;location;lat;lon;timestamp;P1;durP1;ratioP1;P2;durP2;ratioP2
22131;SDS011;11232;51.748;19.390;2023-05-23T00:01:39;9.60;;;5.32;;
22131;SDS011;11232;51.748;19.390;2023-05-23T00:04:07;8.20;;;5.13;;
22131;SDS011;11232;51.748;19.390;2023-05-23T00:06:34;9.07;;;5.75;;
22131;SDS011;11232;51.748;19.390;2023-05-23T00:09:00;9.32;;;6.00;;
22131;SDS011;11232;51.748;19.390;2023-05-23T00:11:26;11.52;;;5.88;;
22131;SDS011;11232;51.748;19.390;2023-05-23T00:13:53;8.13;;;5.32;;
22131;SDS011;11232;51.748;19.390;2023-05-23T00:16:19;10.30;;;5.40;;
22131;SDS011;11232;51.748;19.390;2023-05-23T00:18:46;10.73;;;5.90;;
22131;SDS011;11232;51.748;19.390;2023-05-23T00:21:14;9.90;;;5.93;;
22131;SDS011;11232;51.748;19.390;2023-05-23T00:23:41;10.10;;;5.70;;
22131;SDS011;11232;51.748;19.390;2023-05-23T00:26:10;10.60;;;5.97;;
22131;SDS011;11232;51.748;19.390;2023-05-23T00:28:36;8.88;;;5.32;;
22131;SDS011;11232;51.748;19.390;2023-05-23T00:31:02;8.20;;;5.88;;
22131;SDS011;11232;51.748;19.390;2023-05-23T00:33:28;9.20;;;5.43;;
22131;SDS011;11232;51.748;19.390;2023-05-23T00:35:57;10.18;;;5.80;;
22131;SDS011;11232;51.748;19.390;2023-05-23T00:38:23;8.02;;;5.75;;
22131;SDS011;11232;51.748;19.390;2023-05-23T00:40:49;6.68;;;5.20;;
22131;SDS011;11232;51.748;19.390;2023-05-23T00:43:15;12.00;;;5.65;;
22131;SDS011;11232;51.748;19.390;2023-05-23T00:45:41;10.98;;;6.00;;
22131;SDS011;11232;51.748;19.390;2023-05-23T00:48:07;12.55;;;6.35;;
22131;SDS011;11232;51.748;19.390;2023-05-23T00:50:33;17.95;;;8.45;;
22131;SDS011;11232;51.748;19.390;2023-05-23T00:53:00;20.55;;;10.60;;
22131;SDS011;11232;51.748;19.390;2023-05-23T00:55:27;21.13;;;11.50;;
22131;SDS011;11232;51.748;19.390;2023-05-23T00:57:53;19.13;;;11.20;;
22131;SDS011;11232;51.748;19.390;2023-05-23T01:00:21;19.00;;;10.05;;
22131;SDS011;11232;51.748;19.390;2023-05-23T01:02:48;19.77;;;9.20;;
22131;SDS011;11232;51.748;19.390;2023-05-23T01:05:15;14.73;;;8.90;;
22131;SDS011;11232;51.748;19.390;2023-05-23T01:07:42;15.52;;;7.63;;
22131;SDS011;11232;51.748;19.390;2023-05-23T01:10:08;10.07;;;7.20;;
22131;SDS011;11232;51.748;19.390;2023-05-23T01:12:45;12.55;;;6.80;;
22131;SDS011;11232;51.748;19.390;2023-05-23T01:15:16;10.93;;;6.55;;
22131;SDS011;11232;51.748;19.390;2023-05-23T01:17:51;10.55;;;6.20;;
22131;SDS011;11232;51.748;19.390;2023-05-23T01:20:23;8.63;;;5.38;;
22131;SDS011;11232;51.748;19.390;2023-05-23T01:25:25;9.07;;;5.68;;
22131;SDS011;11232;51.748;19.390;2023-05-23T01:27:54;9.95;;;5.55;;
22131;SDS011;11232;51.748;19.390;2023-05-23T01:30:20;8.45;;;5.38;;
22131;SDS011;11232;51.748;19.390;2023-05-23T01:32:49;9.07;;;5.25;;
22131;SDS011;11232;51.748;19.390;2023-05-23T01:35:25;7.53;;;4.70;;
22131;SDS011;11232;51.748;19.390;2023-05-23T01:37:54;9.93;;;5.22;;
22131;SDS011;11232;51.748;19.390;2023-05-23T01:40:21;8.85;;;5.30;;
22131;SDS011;11232;51.748;19.390;2023-05-23T01:42:47;10.23;;;5.43;;
22131;SDS011;11232;51.748;19.390;2023-05-23T01:45:13;9.55;;;4.93;;
22131;SDS011;11232;51.748;19.390;2023-05-23T01:47:40;7.95;;;5.38;;
22131;SDS011;11232;51.748;19.390;2023-05-23T01:50:06;10.15;;;5.70;;
22131;SDS011;11232;51.748;19.390;2023-05-23T01:52:33;7.25;;;5.25;;
22131;SDS011;11232;51.748;19.390;2023-05-23T01:54:59;6.38;;;4.60;;
22131;SDS011;11232;51.748;19.390;2023-05-23T01:57:26;9.85;;;5.47;;
22131;SDS011;11232;51.748;19.390;2023-05-23T01:59:54;6.82;;;4.75;;
22131;SDS011;11232;51.748;19.390;2023-05-23T02:02:20;6.60;;;4.93;;
22131;SDS011;11232;51.748;19.390;2023-05-23T02:04:47;7.63;;;4.90;;
22131;SDS011;11232;51.748;19.390;2023-05-23T02:07:13;7.30;;;4.90;;
22131;SDS011;11232;51.748;19.390;2023-05-23T02:09:39;7.07;;;4.88;;
22131;SDS011;11232;51.748;19.390;2023-05-23T02:12:05;9.10;;;4.90;;
22131;SDS011;11232;51.748;19.390;2023-05-23T02:14:33;9.02;;;4.88;;
22131;SDS011;11232;51.748;19.390;2023-05-23T02:17:01;7.13;;;4.70;;
22131;SDS011;11232;51.748;19.390;2023-05-23T02:19:28;10.40;;;4.80;;
22131;SDS011;11232;51.748;19.390;2023-05-23T02:21:54;7.97;;;5.30;;
22131;SDS011;11232;51.748;19.390;2023-05-23T02:24:20;9.77;;;5.00;;
22131;SDS011;11232;51.748;19.390;2023-05-23T02:26:46;6.25;;;4.72;;
22131;SDS011;11232;51.748;19.390;2023-05-23T02:29:12;7.45;;;5.10;;
22131;SDS011;11232;51.748;19.390;2023-05-23T02:31:38;7.22;;;5.15;;
22131;SDS011;11232;51.748;19.390;2023-05-23T02:34:04;11.25;;;4.55;;
22131;SDS011;11232;51.748;19.390;2023-05-23T02:36:30;7.25;;;4.72;;
22131;SDS011;11232;51.748;19.390;2023-05-23T02:38:57;8.40;;;4.95;;
22131;SDS011;11232;51.748;19.390;2023-05-23T02:41:23;6.28;;;4.63;;
22131;SDS011;11232;51.748;19.390;2023-05-23T02:43:49;14.63;;;4.97;;
22131;SDS011;11232;51.748;19.390;2023-05-23T02:46:15;7.35;;;4.97;;
22131;SDS011;11232;51.748;19.390;2023-05-23T02:48:41;9.05;;;5.55;;
22131;SDS011;11232;51.748;19.390;2023-05-23T02:51:07;8.10;;;5.18;;
22131;SDS011;11232;51.748;19.390;2023-05-23T02:53:33;9.52;;;5.07;;
22131;SDS011;11232;51.748;19.390;2023-05-23T02:55:59;9.10;;;4.75;;
22131;SDS011;11232;51.748;19.390;2023-05-23T02:58:25;9.02;;;5.10;;
22131;SDS011;11232;51.748;19.390;2023-05-23T03:00:51;8.95;;;5.07;;
22131;SDS011;11232;51.748;19.390;2023-05-23T03:03:17;9.05;;;5.03;;
22131;SDS011;11232;51.748;19.390;2023-05-23T03:05:43;8.07;;;4.90;;
22131;SDS011;11232;51.748;19.390;2023-05-23T03:08:09;9.35;;;4.93;;
22131;SDS011;11232;51.748;19.390;2023-05-23T03:10:36;6.97;;;4.90;;
22131;SDS011;11232;51.748;19.390;2023-05-23T03:13:02;8.80;;;5.22;;
22131;SDS011;11232;51.748;19.390;2023-05-23T03:15:28;9.98;;;4.65;;
22131;SDS011;11232;51.748;19.390;2023-05-23T03:17:54;8.73;;;5.20;;
22131;SDS011;11232;51.748;19.390;2023-05-23T03:20:20;9.88;;;5.00;;
22131;SDS011;11232;51.748;19.390;2023-05-23T03:22:46;7.97;;;5.07;;
22131;SDS011;11232;51.748;19.390;2023-05-23T03:25:13;7.50;;;4.75;;
22131;SDS011;11232;51.748;19.390;2023-05-23T03:27:40;15.10;;;5.03;;
22131;SDS011;11232;51.748;19.390;2023-05-23T03:30:06;8.80;;;5.22;;
22131;SDS011;11232;51.748;19.390;2023-05-23T03:32:33;9.80;;;4.75;;
22131;SDS011;11232;51.748;19.390;2023-05-23T03:34:59;11.95;;;5.35;;
22131;SDS011;11232;51.748;19.390;2023-05-23T03:37:25;7.03;;;4.82;;
22131;SDS011;11232;51.748;19.390;2023-05-23T03:39:51;8.35;;;4.70;;
22131;SDS011;11232;51.748;19.390;2023-05-23T03:42:17;10.05;;;5.05;;
22131;SDS011;11232;51.748;19.390;2023-05-23T03:44:43;7.18;;;5.00;;
22131;SDS011;11232;51.748;19.390;2023-05-23T03:47:09;9.38;;;4.88;;
22131;SDS011;11232;51.748;19.390;2023-05-23T03:49:35;8.48;;;5.05;;
22131;SDS011;11232;51.748;19.390;2023-05-23T03:52:02;7.22;;;4.63;;
22131;SDS011;11232;51.748;19.390;2023-05-23T03:54:28;7.88;;;5.07;;
22131;SDS011;11232;51.748;19.390;2023-05-23T03:56:54;8.02;;;5.43;;
22131;SDS011;11232;51.748;19.390;2023-05-23T03:59:20;9.10;;;4.85;;
22131;SDS011;11232;51.748;19.390;2023-05-23T04:01:46;9.60;;;5.20;;
22131;SDS011;11232;51.748;19.390;2023-05-23T04:04:12;8.40;;;4.63;;
22131;SDS011;11232;51.748;19.390;2023-05-23T04:06:38;10.07;;;4.93;;
22131;SDS011;11232;51.748;19.390;2023-05-23T04:09:04;11.35;;;4.95;;
22131;SDS011;11232;51.748;19.390;2023-05-23T04:11:30;10.68;;;4.80;;
22131;SDS011;11232;51.748;19.390;2023-05-23T04:13:57;10.50;;;5.30;;
22131;SDS011;11232;51.748;19.390;2023-05-23T04:16:23;9.88;;;4.90;;
22131;SDS011;11232;51.748;19.390;2023-05-23T04:18:49;6.78;;;4.88;;
22131;SDS011;11232;51.748;19.390;2023-05-23T04:21:15;8.55;;;4.72;;
22131;SDS011;11232;51.748;19.390;2023-05-23T04:23:41;14.07;;;4.90;;
22131;SDS011;11232;51.748;19.390;2023-05-23T04:26:07;8.18;;;4.90;;
22131;SDS011;11232;51.748;19.390;2023-05-23T04:28:34;8.32;;;5.28;;
22131;SDS011;11232;51.748;19.390;2023-05-23T04:31:01;11.38;;;5.00;;
22131;SDS011;11232;51.748;19.390;2023-05-23T04:33:28;7.32;;;5.03;;
22131;SDS011;11232;51.748;19.390;2023-05-23T04:35:54;6.07;;;4.82;;
22131;SDS011;11232;51.748;19.390;2023-05-23T04:38:21;7.47;;;5.25;;
22131;SDS011;11232;51.748;19.390;2023-05-23T04:40:49;7.15;;;4.45;;
22131;SDS011;11232;51.748;19.390;2023-05-23T04:43:16;10.68;;;4.90;;
22131;SDS011;11232;51.748;19.390;2023-05-23T04:45:44;7.10;;;4.60;;
22131;SDS011;11232;51.748;19.390;2023-05-23T04:48:10;8.13;;;4.65;;
22131;SDS011;11232;51.748;19.390;2023-05-23T04:50:37;6.25;;;4.63;;
22131;SDS011;11232;51.748;19.390;2023-05-23T04:53:04;9.55;;;4.88;;
22131;SDS011;11232;51.748;19.390;2023-05-23T04:55:30;7.82;;;4.40;;
22131;SDS011;11232;51.748;19.390;2023-05-23T04:57:57;9.00;;;4.53;;
22131;SDS011;11232;51.748;19.390;2023-05-23T05:00:23;7.85;;;4.68;;
22131;SDS011;11232;51.748;19.390;2023-05-23T05:02:49;9.32;;;3.95;;
22131;SDS011;11232;51.748;19.390;2023-05-23T05:05:15;10.43;;;4.45;;
22131;SDS011;11232;51.748;19.390;2023-05-23T05:07:41;5.85;;;4.15;;
22131;SDS011;11232;51.748;19.390;2023-05-23T05:10:07;9.90;;;4.18;;
22131;SDS011;11232;51.748;19.390;2023-05-23T05:12:35;8.50;;;3.80;;
22131;SDS011;11232;51.748;19.390;2023-05-23T05:15:01;7.20;;;3.60;;
22131;SDS011;11232;51.748;19.390;2023-05-23T05:17:27;10.60;;;4.10;;
22131;SDS011;11232;51.748;19.390;2023-05-23T05:19:54;6.75;;;4.00;;
22131;SDS011;11232;51.748;19.390;2023-05-23T05:22:20;9.60;;;4.90;;
22131;SDS011;11232;51.748;19.390;2023-05-23T05:24:47;8.43;;;4.20;;
22131;SDS011;11232;51.748;19.390;2023-05-23T05:27:13;5.78;;;3.60;;
22131;SDS011;11232;51.748;19.390;2023-05-23T05:29:39;6.75;;;3.88;;
22131;SDS011;11232;51.748;19.390;2023-05-23T05:32:06;15.90;;;4.60;;
22131;SDS011;11232;51.748;19.390;2023-05-23T05:34:32;7.00;;;4.13;;
22131;SDS011;11232;51.748;19.390;2023-05-23T05:36:59;6.00;;;4.18;;
22131;SDS011;11232;51.748;19.390;2023-05-23T05:39:25;5.70;;;3.90;;
22131;SDS011;11232;51.748;19.390;2023-05-23T05:41:51;5.47;;;3.50;;
22131;SDS011;11232;51.748;19.390;2023-05-23T05:44:17;9.10;;;3.67;;
22131;SDS011;11232;51.748;19.390;2023-05-23T05:46:43;5.82;;;3.97;;
22131;SDS011;11232;51.748;19.390;2023-05-23T05:49:09;13.80;;;3.72;;
22131;SDS011;11232;51.748;19.390;2023-05-23T05:51:35;5.32;;;4.00;;
22131;SDS011;11232;51.748;19.390;2023-05-23T05:54:00;13.82;;;6.22;;
22131;SDS011;11232;51.748;19.390;2023-05-23T05:56:26;7.68;;;3.88;;
22131;SDS011;11232;51.748;19.390;2023-05-23T05:58:52;6.38;;;3.83;;
22131;SDS011;11232;51.748;19.390;2023-05-23T06:01:18;6.13;;;4.05;;
22131;SDS011;11232;51.748;19.390;2023-05-23T06:03:44;5.72;;;4.47;;
22131;SDS011;11232;51.748;19.390;2023-05-23T06:06:10;4.25;;;3.28;;
22131;SDS011;11232;51.748;19.390;2023-05-23T06:08:37;10.55;;;4.00;;
22131;SDS011;11232;51.748;19.390;2023-05-23T06:11:03;6.35;;;3.70;;
22131;SDS011;11232;51.748;19.390;2023-05-23T06:13:28;7.85;;;4.10;;
22131;SDS011;11232;51.748;19.390;2023-05-23T06:15:54;7.18;;;4.00;;
22131;SDS011;11232;51.748;19.390;2023-05-23T06:18:22;6.00;;;3.40;;
22131;SDS011;11232;51.748;19.390;2023-05-23T06:20:47;6.82;;;3.60;;
22131;SDS011;11232;51.748;19.390;2023-05-23T06:23:13;6.07;;;3.50;;
22131;SDS011;11232;51.748;19.390;2023-05-23T06:25:39;10.15;;;3.60;;
22131;SDS011;11232;51.748;19.390;2023-05-23T06:28:05;8.23;;;3.50;;
22131;SDS011;11232;51.748;19.390;2023-05-23T06:30:31;6.40;;;3.33;;
22131;SDS011;11232;51.748;19.390;2023-05-23T06:33:00;10.32;;;3.40;;
22131;SDS011;11232;51.748;19.390;2023-05-23T06:35:26;10.10;;;3.30;;
22131;SDS011;11232;51.748;19.390;2023-05-23T06:37:52;3.85;;;2.97;;
22131;SDS011;11232;51.748;19.390;2023-05-23T06:40:18;6.38;;;2.92;;
22131;SDS011;11232;51.748;19.390;2023-05-23T06:42:44;4.93;;;3.20;;
22131;SDS011;11232;51.748;19.390;2023-05-23T06:45:10;4.43;;;3.10;;
22131;SDS011;11232;51.748;19.390;2023-05-23T06:47:36;7.18;;;3.10;;
22131;SDS011;11232;51.748;19.390;2023-05-23T06:50:02;5.95;;;2.83;;
22131;SDS011;11232;51.748;19.390;2023-05-23T06:52:28;6.45;;;3.13;;
22131;SDS011;11232;51.748;19.390;2023-05-23T06:54:54;6.93;;;3.08;;
22131;SDS011;11232;51.748;19.390;2023-05-23T06:57:20;17.58;;;10.70;;
22131;SDS011;11232;51.748;19.390;2023-05-23T06:59:46;4.68;;;3.20;;
22131;SDS011;11232;51.748;19.390;2023-05-23T07:02:12;3.03;;;2.72;;
22131;SDS011;11232;51.748;19.390;2023-05-23T07:04:38;4.75;;;2.92;;
22131;SDS011;11232;51.748;19.390;2023-05-23T07:07:04;3.60;;;2.75;;
22131;SDS011;11232;51.748;19.390;2023-05-23T07:09:30;4.47;;;2.83;;
22131;SDS011;11232;51.748;19.390;2023-05-23T07:11:56;4.30;;;3.10;;
22131;SDS011;11232;51.748;19.390;2023-05-23T07:14:22;3.42;;;2.90;;
22131;SDS011;11232;51.748;19.390;2023-05-23T07:16:48;4.43;;;3.00;;
22131;SDS011;11232;51.748;19.390;2023-05-23T07:19:14;8.60;;;3.35;;
22131;SDS011;11232;51.748;19.390;2023-05-23T07:21:40;3.78;;;3.00;;
22131;SDS011;11232;51.748;19.390;2023-05-23T07:24:06;5.22;;;3.20;;
22131;SDS011;11232;51.748;19.390;2023-05-23T07:26:32;4.45;;;2.72;;
22131;SDS011;11232;51.748;19.390;2023-05-23T07:28:58;5.82;;;3.58;;
22131;SDS011;11232;51.748;19.390;2023-05-23T07:31:24;5.90;;;3.00;;
22131;SDS011;11232;51.748;19.390;2023-05-23T07:33:50;6.72;;;3.42;;
22131;SDS011;11232;51.748;19.390;2023-05-23T07:36:16;4.28;;;3.08;;
22131;SDS011;11232;51.748;19.390;2023-05-23T07:38:42;5.32;;;2.88;;
22131;SDS011;11232;51.748;19.390;2023-05-23T07:41:08;5.05;;;3.35;;
22131;SDS011;11232;51.748;19.390;2023-05-23T07:43:34;4.85;;;3.00;;
22131;SDS011;11232;51.748;19.390;2023-05-23T07:46:00;4.22;;;3.13;;
22131;SDS011;11232;51.748;19.390;2023-05-23T07:48:26;5.50;;;3.00;;
22131;SDS011;11232;51.748;19.390;2023-05-23T07:50:52;6.88;;;3.28;;
22131;SDS011;11232;51.748;19.390;2023-05-23T07:53:21;4.43;;;2.95;;
22131;SDS011;11232;51.748;19.390;2023-05-23T07:55:47;6.18;;;3.30;;
22131;SDS011;11232;51.748;19.390;2023-05-23T07:58:13;5.60;;;3.33;;
22131;SDS011;11232;51.748;19.390;2023-05-23T08:00:39;4.32;;;3.22;;
22131;SDS011;11232;51.748;19.390;2023-05-23T08:03:05;5.93;;;3.08;;
22131;SDS011;11232;51.748;19.390;2023-05-23T08:05:31;7.00;;;3.20;;
22131;SDS011;11232;51.748;19.390;2023-05-23T08:07:57;4.75;;;3.00;;
22131;SDS011;11232;51.748;19.390;2023-05-23T08:10:23;4.80;;;3.08;;
22131;SDS011;11232;51.748;19.390;2023-05-23T08:12:52;8.25;;;3.08;;
22131;SDS011;11232;51.748;19.390;2023-05-23T08:15:18;5.10;;;3.10;;
22131;SDS011;11232;51.748;19.390;2023-05-23T08:17:44;6.25;;;2.90;;
22131;SDS011;11232;51.748;19.390;2023-05-23T08:20:10;6.05;;;2.72;;
22131;SDS011;11232;51.748;19.390;2023-05-23T08:22:36;4.07;;;3.10;;
22131;SDS011;11232;51.748;19.390;2023-05-23T08:25:03;8.05;;;2.90;;
22131;SDS011;11232;51.748;19.390;2023-05-23T08:27:29;3.08;;;2.50;;
22131;SDS011;11232;51.748;19.390;2023-05-23T08:29:55;5.60;;;3.13;;
22131;SDS011;11232;51.748;19.390;2023-05-23T08:32:21;7.78;;;3.22;;
22131;SDS011;11232;51.748;19.390;2023-05-23T08:34:47;5.53;;;3.25;;
22131;SDS011;11232;51.748;19.390;2023-05-23T08:37:13;7.38;;;3.00;;
22131;SDS011;11232;51.748;19.390;2023-05-23T08:39:39;4.32;;;2.97;;
22131;SDS011;11232;51.748;19.390;2023-05-23T08:42:06;7.63;;;3.10;;
22131;SDS011;11232;51.748;19.390;2023-05-23T08:44:32;14.88;;;3.10;;
22131;SDS011;11232;51.748;19.390;2023-05-23T08:46:58;12.30;;;3.50;;
22131;SDS011;11232;51.748;19.390;2023-05-23T08:49:29;5.07;;;2.50;;
22131;SDS011;11232;51.748;19.390;2023-05-23T08:51:56;9.80;;;3.30;;
22131;SDS011;11232;51.748;19.390;2023-05-23T08:54:26;4.10;;;2.70;;
22131;SDS011;11232;51.748;19.390;2023-05-23T08:56:53;16.35;;;3.00;;
22131;SDS011;11232;51.748;19.390;2023-05-23T08:59:22;6.38;;;3.38;;
22131;SDS011;11232;51.748;19.390;2023-05-23T09:01:50;6.18;;;3.33;;
22131;SDS011;11232;51.748;19.390;2023-05-23T09:04:16;4.60;;;2.60;;
22131;SDS011;11232;51.748;19.390;2023-05-23T09:06:42;3.75;;;2.67;;
22131;SDS011;11232;51.748;19.390;2023-05-23T09:09:08;7.15;;;3.28;;
22131;SDS011;11232;51.748;19.390;2023-05-23T09:11:34;3.90;;;2.92;;
22131;SDS011;11232;51.748;19.390;2023-05-23T09:14:00;6.28;;;2.90;;
22131;SDS011;11232;51.748;19.390;2023-05-23T09:16:32;4.95;;;2.95;;
22131;SDS011;11232;51.748;19.390;2023-05-23T09:19:11;6.18;;;3.30;;
22131;SDS011;11232;51.748;19.390;2023-05-23T09:21:41;5.93;;;2.97;;
22131;SDS011;11232;51.748;19.390;2023-05-23T09:24:07;3.85;;;2.67;;
22131;SDS011;11232;51.748;19.390;2023-05-23T09:26:33;5.97;;;3.10;;
22131;SDS011;11232;51.748;19.390;2023-05-23T09:28:59;4.28;;;3.28;;
22131;SDS011;11232;51.748;19.390;2023-05-23T09:31:25;6.95;;;2.80;;
22131;SDS011;11232;51.748;19.390;2023-05-23T09:33:54;3.88;;;2.92;;
22131;SDS011;11232;51.748;19.390;2023-05-23T09:36:20;6.45;;;3.13;;
22131;SDS011;11232;51.748;19.390;2023-05-23T09:38:46;4.80;;;3.30;;
22131;SDS011;11232;51.748;19.390;2023-05-23T09:41:12;8.93;;;3.75;;
22131;SDS011;11232;51.748;19.390;2023-05-23T09:43:39;4.65;;;3.17;;
22131;SDS011;11232;51.748;19.390;2023-05-23T09:46:07;6.00;;;3.05;;
22131;SDS011;11232;51.748;19.390;2023-05-23T09:48:33;4.75;;;3.17;;
22131;SDS011;11232;51.748;19.390;2023-05-23T09:51:02;5.18;;;3.08;;
22131;SDS011;11232;51.748;19.390;2023-05-23T09:53:28;6.30;;;2.92;;
22131;SDS011;11232;51.748;19.390;2023-05-23T09:55:54;4.50;;;3.22;;
22131;SDS011;11232;51.748;19.390;2023-05-23T09:58:22;5.50;;;3.20;;
22131;SDS011;11232;51.748;19.390;2023-05-23T10:00:49;6.30;;;3.08;;
22131;SDS011;11232;51.748;19.390;2023-05-23T10:03:21;5.10;;;2.88;;
22131;SDS011;11232;51.748;19.390;2023-05-23T10:05:49;5.30;;;2.85;;
22131;SDS011;11232;51.748;19.390;2023-05-23T10:10:57;5.22;;;2.97;;
22131;SDS011;11232;51.748;19.390;2023-05-23T10:13:28;6.38;;;3.20;;
22131;SDS011;11232;51.748;19.390;2023-05-23T10:16:06;6.22;;;3.30;;
22131;SDS011;11232;51.748;19.390;2023-05-23T10:18:38;6.70;;;2.72;;
22131;SDS011;11232;51.748;19.390;2023-05-23T10:21:06;5.25;;;3.20;;
22131;SDS011;11232;51.748;19.390;2023-05-23T10:23:34;7.80;;;3.22;;
22131;SDS011;11232;51.748;19.390;2023-05-23T10:26:00;4.72;;;3.33;;
22131;SDS011;11232;51.748;19.390;2023-05-23T10:28:28;6.78;;;3.10;;
22131;SDS011;11232;51.748;19.390;2023-05-23T10:30:54;5.13;;;3.10;;
22131;SDS011;11232;51.748;19.390;2023-05-23T10:33:21;3.75;;;3.10;;
22131;SDS011;11232;51.748;19.390;2023-05-23T10:41:00;10.18;;;3.30;;
22131;SDS011;11232;51.748;19.390;2023-05-23T10:43:30;5.13;;;2.92;;
22131;SDS011;11232;51.748;19.390;2023-05-23T10:45:57;4.57;;;3.00;;
22131;SDS011;11232;51.748;19.390;2023-05-23T10:48:39;7.32;;;3.92;;
22131;SDS011;11232;51.748;19.390;2023-05-23T10:51:07;7.95;;;4.13;;
22131;SDS011;11232;51.748;19.390;2023-05-23T10:53:34;22.88;;;4.18;;
22131;SDS011;11232;51.748;19.390;2023-05-23T10:56:00;5.68;;;3.28;;
22131;SDS011;11232;51.748;19.390;2023-05-23T10:58:28;6.53;;;3.65;;
22131;SDS011;11232;51.748;19.390;2023-05-23T11:00:55;6.03;;;2.92;;
22131;SDS011;11232;51.748;19.390;2023-05-23T11:06:00;7.25;;;3.53;;
22131;SDS011;11232;51.748;19.390;2023-05-23T11:08:26;9.25;;;3.60;;
22131;SDS011;11232;51.748;19.390;2023-05-23T11:11:01;4.60;;;3.25;;
22131;SDS011;11232;51.748;19.390;2023-05-23T11:21:38;10.18;;;3.60;;
22131;SDS011;11232;51.748;19.390;2023-05-23T11:24:04;4.03;;;3.08;;
22131;SDS011;11232;51.748;19.390;2023-05-23T11:26:30;7.13;;;3.75;;
22131;SDS011;11232;51.748;19.390;2023-05-23T11:28:57;7.28;;;3.40;;
22131;SDS011;11232;51.748;19.390;2023-05-23T11:31:24;5.75;;;3.38;;
22131;SDS011;11232;51.748;19.390;2023-05-23T11:33:50;5.18;;;3.28;;
22131;SDS011;11232;51.748;19.390;2023-05-23T11:36:16;8.35;;;4.07;;
22131;SDS011;11232;51.748;19.390;2023-05-23T11:38:42;5.40;;;3.25;;
22131;SDS011;11232;51.748;19.390;2023-05-23T11:41:08;6.55;;;4.15;;
22131;SDS011;11232;51.748;19.390;2023-05-23T11:43:34;19.75;;;11.85;;
22131;SDS011;11232;51.748;19.390;2023-05-23T11:46:06;4.90;;;4.25;;
22131;SDS011;11232;51.748;19.390;2023-05-23T11:48:32;6.65;;;4.30;;
22131;SDS011;11232;51.748;19.390;2023-05-23T11:50:58;6.60;;;4.30;;
22131;SDS011;11232;51.748;19.390;2023-05-23T11:53:26;5.95;;;4.07;;
22131;SDS011;11232;51.748;19.390;2023-05-23T11:55:56;13.70;;;4.25;;
22131;SDS011;11232;51.748;19.390;2023-05-23T11:58:32;5.75;;;3.75;;
22131;SDS011;11232;51.748;19.390;2023-05-23T12:00:59;6.72;;;4.40;;
22131;SDS011;11232;51.748;19.390;2023-05-23T12:03:26;9.00;;;4.00;;
22131;SDS011;11232;51.748;19.390;2023-05-23T12:05:53;5.63;;;4.38;;
22131;SDS011;11232;51.748;19.390;2023-05-23T12:08:19;5.55;;;4.20;;
22131;SDS011;11232;51.748;19.390;2023-05-23T12:10:50;6.00;;;4.25;;
22131;SDS011;11232;51.748;19.390;2023-05-23T12:13:16;8.27;;;5.13;;
22131;SDS011;11232;51.748;19.390;2023-05-23T12:15:42;7.90;;;4.40;;
22131;SDS011;11232;51.748;19.390;2023-05-23T12:18:08;6.80;;;4.68;;
22131;SDS011;11232;51.748;19.390;2023-05-23T12:20:35;6.93;;;4.72;;
22131;SDS011;11232;51.748;19.390;2023-05-23T12:23:03;5.60;;;4.20;;
22131;SDS011;11232;51.748;19.390;2023-05-23T12:25:37;10.05;;;4.97;;
22131;SDS011;11232;51.748;19.390;2023-05-23T12:28:03;5.75;;;4.63;;
22131;SDS011;11232;51.748;19.390;2023-05-23T12:30:42;8.00;;;5.13;;
22131;SDS011;11232;51.748;19.390;2023-05-23T12:33:08;8.40;;;5.05;;
22131;SDS011;11232;51.748;19.390;2023-05-23T12:35:35;12.32;;;5.00;;
22131;SDS011;11232;51.748;19.390;2023-05-23T12:38:04;8.48;;;4.80;;
22131;SDS011;11232;51.748;19.390;2023-05-23T12:40:31;10.23;;;4.85;;
22131;SDS011;11232;51.748;19.390;2023-05-23T12:42:57;9.93;;;5.50;;
22131;SDS011;11232;51.748;19.390;2023-05-23T12:45:30;10.07;;;5.13;;
22131;SDS011;11232;51.748;19.390;2023-05-23T12:48:06;7.40;;;5.03;;
22131;SDS011;11232;51.748;19.390;2023-05-23T12:50:32;9.98;;;5.38;;
22131;SDS011;11232;51.748;19.390;2023-05-23T12:52:58;7.53;;;5.30;;
22131;SDS011;11232;51.748;19.390;2023-05-23T12:55:24;10.35;;;5.75;;
22131;SDS011;11232;51.748;19.390;2023-05-23T12:57:50;6.20;;;4.78;;
22131;SDS011;11232;51.748;19.390;2023-05-23T13:00:16;8.73;;;5.00;;
22131;SDS011;11232;51.748;19.390;2023-05-23T13:02:43;8.65;;;5.10;;
22131;SDS011;11232;51.748;19.390;2023-05-23T13:05:09;9.55;;;5.32;;
22131;SDS011;11232;51.748;19.390;2023-05-23T13:07:36;12.38;;;5.10;;
22131;SDS011;11232;51.748;19.390;2023-05-23T13:10:02;6.72;;;4.82;;
22131;SDS011;11232;51.748;19.390;2023-05-23T13:12:28;8.23;;;4.93;;
22131;SDS011;11232;51.748;19.390;2023-05-23T13:14:54;6.72;;;4.90;;
22131;SDS011;11232;51.748;19.390;2023-05-23T13:17:22;8.40;;;5.45;;
22131;SDS011;11232;51.748;19.390;2023-05-23T13:19:48;8.60;;;5.43;;
22131;SDS011;11232;51.748;19.390;2023-05-23T13:22:14;11.55;;;5.82;;
22131;SDS011;11232;51.748;19.390;2023-05-23T13:24:40;13.23;;;5.50;;
22131;SDS011;11232;51.748;19.390;2023-05-23T13:27:07;11.80;;;5.53;;
22131;SDS011;11232;51.748;19.390;2023-05-23T13:29:33;10.82;;;5.95;;
22131;SDS011;11232;51.748;19.390;2023-05-23T13:31:59;6.00;;;5.15;;
22131;SDS011;11232;51.748;19.390;2023-05-23T13:34:25;11.20;;;5.30;;
22131;SDS011;11232;51.748;19.390;2023-05-23T13:36:52;7.60;;;5.20;;
22131;SDS011;11232;51.748;19.390;2023-05-23T13:39:18;11.27;;;6.18;;
22131;SDS011;11232;51.748;19.390;2023-05-23T13:41:46;10.70;;;6.13;;
22131;SDS011;11232;51.748;19.390;2023-05-23T13:44:12;9.13;;;5.38;;
22131;SDS011;11232;51.748;19.390;2023-05-23T13:46:38;10.30;;;5.43;;
22131;SDS011;11232;51.748;19.390;2023-05-23T13:49:04;9.73;;;5.97;;
22131;SDS011;11232;51.748;19.390;2023-05-23T13:51:30;8.77;;;5.95;;
22131;SDS011;11232;51.748;19.390;2023-05-23T13:53:57;9.95;;;5.95;;
22131;SDS011;11232;51.748;19.390;2023-05-23T13:56:23;7.68;;;5.38;;
22131;SDS011;11232;51.748;19.390;2023-05-23T13:58:49;9.35;;;5.65;;
22131;SDS011;11232;51.748;19.390;2023-05-23T14:01:14;9.48;;;5.13;;
22131;SDS011;11232;51.748;19.390;2023-05-23T14:03:41;11.40;;;5.55;;
22131;SDS011;11232;51.748;19.390;2023-05-23T14:06:07;7.75;;;4.78;;
22131;SDS011;11232;51.748;19.390;2023-05-23T14:08:33;8.48;;;5.85;;
22131;SDS011;11232;51.748;19.390;2023-05-23T14:10:59;7.55;;;5.30;;
22131;SDS011;11232;51.748;19.390;2023-05-23T14:13:25;8.38;;;5.75;;
22131;SDS011;11232;51.748;19.390;2023-05-23T14:15:51;8.50;;;5.82;;
22131;SDS011;11232;51.748;19.390;2023-05-23T14:18:18;7.95;;;5.28;;
22131;SDS011;11232;51.748;19.390;2023-05-23T14:20:44;7.65;;;5.13;;
22131;SDS011;11232;51.748;19.390;2023-05-23T14:23:10;8.95;;;5.80;;
22131;SDS011;11232;51.748;19.390;2023-05-23T14:25:36;12.18;;;5.43;;
22131;SDS011;11232;51.748;19.390;2023-05-23T14:28:02;8.88;;;5.43;;
22131;SDS011;11232;51.748;19.390;2023-05-23T14:30:28;9.00;;;5.57;;
22131;SDS011;11232;51.748;19.390;2023-05-23T14:32:54;8.32;;;5.32;;
22131;SDS011;11232;51.748;19.390;2023-05-23T14:35:20;8.38;;;6.00;;
22131;SDS011;11232;51.748;19.390;2023-05-23T14:37:46;8.15;;;5.88;;
22131;SDS011;11232;51.748;19.390;2023-05-23T14:40:12;12.00;;;6.05;;
22131;SDS011;11232;51.748;19.390;2023-05-23T14:42:40;9.30;;;5.47;;
22131;SDS011;11232;51.748;19.390;2023-05-23T14:45:06;10.00;;;5.70;;
22131;SDS011;11232;51.748;19.390;2023-05-23T14:47:32;7.78;;;5.15;;
22131;SDS011;11232;51.748;19.390;2023-05-23T14:49:59;7.55;;;5.50;;